sensor_id;sensor_type;location;lat;lon;timestamp;P1;durP1;ratioP1;P2;durP2;ratioP2
57615;SDS011;43816;52.054;-9.494;2022-10-16T00:00:05;5.03;;;4.50;;
57615;SDS011;43816;52.054;-9.494;2022-10-16T00:00:15;4.75;;;4.25;;
57615;SDS011;43816;52.054;-9.494;2022-10-16T00:00:26;4.30;;;3.90;;
57615;SDS011;43816;52.054;-9.494;2022-10-16T00:00:36;4.23;;;3.83;;
57615;SDS011;43816;52.054;-9.494;2022-10-16T00:00:48;4.55;;;4.15;;
57615;SDS011;43816;52.054;-9.494;2022-10-16T00:00:58;4.53;;;4.13;;
57615;SDS011;43816;52.054;-9.494;2022-10-16T00:01:17;4.38;;;3.97;;
57615;SDS011;43816;52.054;-9.494;2022-10-16T00:01:29;4.50;;;4.10;;
57615;SDS011;43816;52.054;-9.494;2022-10-16T00:01:41;4.60;;;4.20;;
57615;SDS011;43816;52.054;-9.494;2022-10-16T00:01:51;4.75;;;4.30;;
57615;SDS011;43816;52.054;-9.494;2022-10-16T00:02:01;4.50;;;4.10;;
57615;SDS011;43816;52.054;-9.494;2022-10-16T00:02:12;4.47;;;4.07;;
57615;SDS011;43816;52.054;-9.494;2022-10-16T00:02:22;4.45;;;4.05;;
57615;SDS011;43816;52.054;-9.494;2022-10-16T00:02:32;4.60;;;4.20;;
57615;SDS011;43816;52.054;-9.494;2022-10-16T00:02:42;4.50;;;4.10;;
57615;SDS011;43816;52.054;-9.494;2022-10-16T00:02:53;4.55;;;4.15;;
57615;SDS011;43816;52.054;-9.494;2022-10-16T00:03:03;4.60;;;4.20;;
57615;SDS011;43816;52.054;-9.494;2022-10-16T00:03:14;4.65;;;4.25;;
57615;SDS011;43816;52.054;-9.494;2022-10-16T00:03:24;4.70;;;4.27;;
57615;SDS011;43816;52.054;-9.494;2022-10-16T00:03:35;4.57;;;4.10;;
57615;SDS011;43816;52.054;-9.494;2022-10-16T00:03:46;4.77;;;4.17;;
57615;SDS011;43816;52.054;-9.494;2022-10-16T00:03:58;4.70;;;4.00;;
57615;SDS011;43816;52.054;-9.494;2022-10-16T00:04:10;4.55;;;4.10;;
57615;SDS011;43816;52.054;-9.494;2022-10-16T00:04:20;4.53;;;4.13;;
57615;SDS011;43816;52.054;-9.494;2022-10-16T00:04:30;4.60;;;4.20;;
57615;SDS011;43816;52.054;-9.494;2022-10-16T00:04:41;4.70;;;4.20;;
57615;SDS011;43816;52.054;-9.494;2022-10-16T00:04:51;4.40;;;3.93;;
57615;SDS011;43816;52.054;-9.494;2022-10-16T00:05:01;5.17;;;4.00;;
57615;SDS011;43816;52.054;-9.494;2022-10-16T00:05:11;5.20;;;4.30;;
57615;SDS011;43816;52.054;-9.494;2022-10-16T00:05:22;5.37;;;4.50;;
57615;SDS011;43816;52.054;-9.494;2022-10-16T00:05:32;4.90;;;4.40;;
57615;SDS011;43816;52.054;-9.494;2022-10-16T00:05:47;5.00;;;4.30;;
57615;SDS011;43816;52.054;-9.494;2022-10-16T00:05:58;4.65;;;4.10;;
57615;SDS011;43816;52.054;-9.494;2022-10-16T00:06:10;4.55;;;4.15;;
57615;SDS011;43816;52.054;-9.494;2022-10-16T00:06:21;4.50;;;4.10;;
57615;SDS011;43816;52.054;-9.494;2022-10-16T00:06:32;4.55;;;4.15;;
57615;SDS011;43816;52.054;-9.494;2022-10-16T00:06:43;4.53;;;4.10;;
57615;SDS011;43816;52.054;-9.494;2022-10-16T00:06:53;4.80;;;4.22;;
57615;SDS011;43816;52.054;-9.494;2022-10-16T00:07:03;4.87;;;4.20;;
57615;SDS011;43816;52.054;-9.494;2022-10-16T00:07:14;4.70;;;4.13;;
57615;SDS011;43816;52.054;-9.494;2022-10-16T00:07:24;4.45;;;4.05;;
57615;SDS011;43816;52.054;-9.494;2022-10-16T00:07:34;4.40;;;4.00;;
57615;SDS011;43816;52.054;-9.494;2022-10-16T00:07:44;4.60;;;4.13;;
57615;SDS011;43816;52.054;-9.494;2022-10-16T00:07:55;5.13;;;4.30;;
57615;SDS011;43816;52.054;-9.494;2022-10-16T00:08:05;5.10;;;4.20;;
57615;SDS011;43816;52.054;-9.494;2022-10-16T00:08:16;4.97;;;4.25;;
57615;SDS011;43816;52.054;-9.494;2022-10-16T00:08:26;4.77;;;4.23;;
57615;SDS011;43816;52.054;-9.494;2022-10-16T00:08:37;4.72;;;4.13;;
57615;SDS011;43816;52.054;-9.494;2022-10-16T00:08:49;4.75;;;4.10;;
57615;SDS011;43816;52.054;-9.494;2022-10-16T00:09:00;4.70;;;4.00;;
57615;SDS011;43816;52.054;-9.494;2022-10-16T00:09:10;4.70;;;4.20;;
57615;SDS011;43816;52.054;-9.494;2022-10-16T00:09:20;4.72;;;4.25;;
57615;SDS011;43816;52.054;-9.494;2022-10-16T00:09:31;4.53;;;4.13;;
57615;SDS011;43816;52.054;-9.494;2022-10-16T00:09:41;4.37;;;3.97;;
57615;SDS011;43816;52.054;-9.494;2022-10-16T00:09:51;4.30;;;3.90;;
57615;SDS011;43816;52.054;-9.494;2022-10-16T00:10:01;4.47;;;4.07;;
57615;SDS011;43816;52.054;-9.494;2022-10-16T00:10:12;4.30;;;3.90;;
57615;SDS011;43816;52.054;-9.494;2022-10-16T00:10:22;4.50;;;3.90;;
57615;SDS011;43816;52.054;-9.494;2022-10-16T00:10:33;4.18;;;3.70;;
57615;SDS011;43816;52.054;-9.494;2022-10-16T00:10:44;4.22;;;3.80;;
57615;SDS011;43816;52.054;-9.494;2022-10-16T00:10:58;4.18;;;3.78;;
57615;SDS011;43816;52.054;-9.494;2022-10-16T00:11:17;4.28;;;3.88;;
57615;SDS011;43816;52.054;-9.494;2022-10-16T00:11:31;4.45;;;4.05;;
57615;SDS011;43816;52.054;-9.494;2022-10-16T00:11:43;4.50;;;4.10;;
57615;SDS011;43816;52.054;-9.494;2022-10-16T00:11:53;4.43;;;4.03;;
57615;SDS011;43816;52.054;-9.494;2022-10-16T00:12:04;4.30;;;3.90;;
57615;SDS011;43816;52.054;-9.494;2022-10-16T00:12:14;4.20;;;3.80;;
57615;SDS011;43816;52.054;-9.494;2022-10-16T00:12:24;4.20;;;3.80;;
57615;SDS011;43816;52.054;-9.494;2022-10-16T00:12:34;4.30;;;3.90;;
57615;SDS011;43816;52.054;-9.494;2022-10-16T00:12:45;4.23;;;3.83;;
57615;SDS011;43816;52.054;-9.494;2022-10-16T00:12:55;4.20;;;3.80;;
57615;SDS011;43816;52.054;-9.494;2022-10-16T00:13:05;4.20;;;3.80;;
57615;SDS011;43816;52.054;-9.494;2022-10-16T00:13:16;4.20;;;3.80;;
57615;SDS011;43816;52.054;-9.494;2022-10-16T00:13:26;4.03;;;3.67;;
57615;SDS011;43816;52.054;-9.494;2022-10-16T00:13:39;4.30;;;3.90;;
57615;SDS011;43816;52.054;-9.494;2022-10-16T00:13:50;4.15;;;3.75;;
57615;SDS011;43816;52.054;-9.494;2022-10-16T00:14:06;4.05;;;3.65;;
57615;SDS011;43816;52.054;-9.494;2022-10-16T00:14:18;4.20;;;3.80;;
57615;SDS011;43816;52.054;-9.494;2022-10-16T00:14:28;4.23;;;3.83;;
57615;SDS011;43816;52.054;-9.494;2022-10-16T00:14:39;4.10;;;3.70;;
57615;SDS011;43816;52.054;-9.494;2022-10-16T00:14:49;3.80;;;3.50;;
57615;SDS011;43816;52.054;-9.494;2022-10-16T00:14:59;4.20;;;3.60;;
57615;SDS011;43816;52.054;-9.494;2022-10-16T00:15:10;4.43;;;3.70;;
57615;SDS011;43816;52.054;-9.494;2022-10-16T00:15:20;5.07;;;3.90;;
57615;SDS011;43816;52.054;-9.494;2022-10-16T00:15:32;4.30;;;3.80;;
57615;SDS011;43816;52.054;-9.494;2022-10-16T00:15:43;4.80;;;3.80;;
57615;SDS011;43816;52.054;-9.494;2022-10-16T00:15:57;4.67;;;3.70;;
57615;SDS011;43816;52.054;-9.494;2022-10-16T00:16:08;4.03;;;3.63;;
57615;SDS011;43816;52.054;-9.494;2022-10-16T00:16:19;3.83;;;3.53;;
57615;SDS011;43816;52.054;-9.494;2022-10-16T00:16:30;4.10;;;3.70;;
57615;SDS011;43816;52.054;-9.494;2022-10-16T00:16:40;4.28;;;3.72;;
57615;SDS011;43816;52.054;-9.494;2022-10-16T00:16:51;4.40;;;3.80;;
57615;SDS011;43816;52.054;-9.494;2022-10-16T00:17:01;4.38;;;3.80;;
57615;SDS011;43816;52.054;-9.494;2022-10-16T00:17:11;4.20;;;3.70;;
57615;SDS011;43816;52.054;-9.494;2022-10-16T00:17:22;4.10;;;3.70;;
57615;SDS011;43816;52.054;-9.494;2022-10-16T00:17:32;4.13;;;3.60;;
57615;SDS011;43816;52.054;-9.494;2022-10-16T00:17:42;4.10;;;3.70;;
57615;SDS011;43816;52.054;-9.494;2022-10-16T00:17:53;4.20;;;3.50;;
57615;SDS011;43816;52.054;-9.494;2022-10-16T00:18:04;3.93;;;3.40;;
57615;SDS011;43816;52.054;-9.494;2022-10-16T00:18:14;4.03;;;3.42;;
57615;SDS011;43816;52.054;-9.494;2022-10-16T00:18:25;4.10;;;3.57;;
57615;SDS011;43816;52.054;-9.494;2022-10-16T00:18:36;4.10;;;3.70;;
57615;SDS011;43816;52.054;-9.494;2022-10-16T00:18:47;4.37;;;3.60;;
57615;SDS011;43816;52.054;-9.494;2022-10-16T00:18:57;4.43;;;3.70;;
57615;SDS011;43816;52.054;-9.494;2022-10-16T00:19:09;4.45;;;3.80;;
57615;SDS011;43816;52.054;-9.494;2022-10-16T00:19:21;4.30;;;3.90;;
57615;SDS011;43816;52.054;-9.494;2022-10-16T00:19:31;4.07;;;3.70;;
57615;SDS011;43816;52.054;-9.494;2022-10-16T00:19:41;4.10;;;3.70;;
57615;SDS011;43816;52.054;-9.494;2022-10-16T00:19:51;4.03;;;3.63;;
57615;SDS011;43816;52.054;-9.494;2022-10-16T00:20:02;4.00;;;3.60;;
57615;SDS011;43816;52.054;-9.494;2022-10-16T00:20:13;3.92;;;3.53;;
57615;SDS011;43816;52.054;-9.494;2022-10-16T00:20:23;4.13;;;3.63;;
57615;SDS011;43816;52.054;-9.494;2022-10-16T00:20:34;4.37;;;3.57;;
57615;SDS011;43816;52.054;-9.494;2022-10-16T00:20:44;4.25;;;3.67;;
57615;SDS011;43816;52.054;-9.494;2022-10-16T00:20:55;3.85;;;3.45;;
57615;SDS011;43816;52.054;-9.494;2022-10-16T00:21:12;4.03;;;3.53;;
57615;SDS011;43816;52.054;-9.494;2022-10-16T00:21:25;3.95;;;3.55;;
57615;SDS011;43816;52.054;-9.494;2022-10-16T00:21:37;4.28;;;3.78;;
57615;SDS011;43816;52.054;-9.494;2022-10-16T00:21:47;4.07;;;3.67;;
57615;SDS011;43816;52.054;-9.494;2022-10-16T00:21:57;4.20;;;3.80;;
57615;SDS011;43816;52.054;-9.494;2022-10-16T00:22:08;4.07;;;3.67;;
57615;SDS011;43816;52.054;-9.494;2022-10-16T00:22:18;3.90;;;3.50;;
57615;SDS011;43816;52.054;-9.494;2022-10-16T00:22:28;3.67;;;3.38;;
57615;SDS011;43816;52.054;-9.494;2022-10-16T00:22:38;3.60;;;3.30;;
57615;SDS011;43816;52.054;-9.494;2022-10-16T00:22:49;3.80;;;3.50;;
57615;SDS011;43816;52.054;-9.494;2022-10-16T00:22:59;3.90;;;3.60;;
57615;SDS011;43816;52.054;-9.494;2022-10-16T00:23:09;4.00;;;3.55;;
57615;SDS011;43816;52.054;-9.494;2022-10-16T00:23:20;3.97;;;3.50;;
57615;SDS011;43816;52.054;-9.494;2022-10-16T00:23:31;3.92;;;3.30;;
57615;SDS011;43816;52.054;-9.494;2022-10-16T00:23:41;3.80;;;3.38;;
57615;SDS011;43816;52.054;-9.494;2022-10-16T00:23:53;3.80;;;3.40;;
57615;SDS011;43816;52.054;-9.494;2022-10-16T00:24:06;3.90;;;3.50;;
57615;SDS011;43816;52.054;-9.494;2022-10-16T00:24:17;3.70;;;3.40;;
57615;SDS011;43816;52.054;-9.494;2022-10-16T00:24:28;3.80;;;3.47;;
57615;SDS011;43816;52.054;-9.494;2022-10-16T00:24:38;3.70;;;3.40;;
57615;SDS011;43816;52.054;-9.494;2022-10-16T00:24:48;3.60;;;3.30;;
57615;SDS011;43816;52.054;-9.494;2022-10-16T00:24:59;3.55;;;3.25;;
57615;SDS011;43816;52.054;-9.494;2022-10-16T00:25:09;3.70;;;3.40;;
57615;SDS011;43816;52.054;-9.494;2022-10-16T00:25:19;3.77;;;3.47;;
57615;SDS011;43816;52.054;-9.494;2022-10-16T00:25:30;3.85;;;3.53;;
57615;SDS011;43816;52.054;-9.494;2022-10-16T00:25:40;3.93;;;3.53;;
57615;SDS011;43816;52.054;-9.494;2022-10-16T00:25:57;3.85;;;3.42;;
57615;SDS011;43816;52.054;-9.494;2022-10-16T00:26:10;3.30;;;3.00;;
57615;SDS011;43816;52.054;-9.494;2022-10-16T00:26:23;3.83;;;3.20;;
57615;SDS011;43816;52.054;-9.494;2022-10-16T00:26:34;4.07;;;3.37;;
57615;SDS011;43816;52.054;-9.494;2022-10-16T00:26:45;4.40;;;3.47;;
57615;SDS011;43816;52.054;-9.494;2022-10-16T00:26:59;4.10;;;3.50;;
57615;SDS011;43816;52.054;-9.494;2022-10-16T00:27:09;3.80;;;3.40;;
57615;SDS011;43816;52.054;-9.494;2022-10-16T00:27:19;4.05;;;3.50;;
57615;SDS011;43816;52.054;-9.494;2022-10-16T00:27:30;4.07;;;3.53;;
57615;SDS011;43816;52.054;-9.494;2022-10-16T00:27:40;4.00;;;3.60;;
57615;SDS011;43816;52.054;-9.494;2022-10-16T00:27:50;3.83;;;3.50;;
57615;SDS011;43816;52.054;-9.494;2022-10-16T00:28:01;4.00;;;3.60;;
57615;SDS011;43816;52.054;-9.494;2022-10-16T00:28:11;4.07;;;3.60;;
57615;SDS011;43816;52.054;-9.494;2022-10-16T00:28:21;4.10;;;3.70;;
57615;SDS011;43816;52.054;-9.494;2022-10-16T00:28:32;3.90;;;3.43;;
57615;SDS011;43816;52.054;-9.494;2022-10-16T00:28:42;3.75;;;3.40;;
57615;SDS011;43816;52.054;-9.494;2022-10-16T00:28:56;3.50;;;3.20;;
57615;SDS011;43816;52.054;-9.494;2022-10-16T00:29:06;3.50;;;3.20;;
57615;SDS011;43816;52.054;-9.494;2022-10-16T00:29:17;3.50;;;3.20;;
57615;SDS011;43816;52.054;-9.494;2022-10-16T00:29:28;3.70;;;3.30;;
57615;SDS011;43816;52.054;-9.494;2022-10-16T00:29:38;3.65;;;3.30;;
57615;SDS011;43816;52.054;-9.494;2022-10-16T00:29:51;3.60;;;3.30;;
57615;SDS011;43816;52.054;-9.494;2022-10-16T00:30:02;3.63;;;3.33;;
57615;SDS011;43816;52.054;-9.494;2022-10-16T00:30:13;3.92;;;3.40;;
57615;SDS011;43816;52.054;-9.494;2022-10-16T00:30:23;4.10;;;3.30;;
57615;SDS011;43816;52.054;-9.494;2022-10-16T00:30:37;3.80;;;3.30;;
57615;SDS011;43816;52.054;-9.494;2022-10-16T00:30:47;3.88;;;3.42;;
57615;SDS011;43816;52.054;-9.494;2022-10-16T00:30:58;3.88;;;3.42;;
57615;SDS011;43816;52.054;-9.494;2022-10-16T00:31:09;4.10;;;3.40;;
57615;SDS011;43816;52.054;-9.494;2022-10-16T00:31:21;3.97;;;3.40;;
57615;SDS011;43816;52.054;-9.494;2022-10-16T00:31:32;3.90;;;3.30;;
57615;SDS011;43816;52.054;-9.494;2022-10-16T00:31:43;3.38;;;3.08;;
57615;SDS011;43816;52.054;-9.494;2022-10-16T00:31:53;3.30;;;3.00;;
57615;SDS011;43816;52.054;-9.494;2022-10-16T00:32:04;3.37;;;3.07;;
57615;SDS011;43816;52.054;-9.494;2022-10-16T00:32:14;3.37;;;3.07;;
57615;SDS011;43816;52.054;-9.494;2022-10-16T00:32:24;3.40;;;3.10;;
57615;SDS011;43816;52.054;-9.494;2022-10-16T00:32:34;3.40;;;3.10;;
57615;SDS011;43816;52.054;-9.494;2022-10-16T00:32:45;3.70;;;3.30;;
57615;SDS011;43816;52.054;-9.494;2022-10-16T00:32:55;3.83;;;3.40;;
57615;SDS011;43816;52.054;-9.494;2022-10-16T00:33:06;3.97;;;3.50;;
57615;SDS011;43816;52.054;-9.494;2022-10-16T00:33:16;3.77;;;3.40;;
57615;SDS011;43816;52.054;-9.494;2022-10-16T00:33:26;3.80;;;3.40;;
57615;SDS011;43816;52.054;-9.494;2022-10-16T00:33:37;3.90;;;3.50;;
57615;SDS011;43816;52.054;-9.494;2022-10-16T00:33:49;3.97;;;3.42;;
57615;SDS011;43816;52.054;-9.494;2022-10-16T00:34:00;3.75;;;3.30;;
57615;SDS011;43816;52.054;-9.494;2022-10-16T00:34:10;3.67;;;3.20;;
57615;SDS011;43816;52.054;-9.494;2022-10-16T00:34:21;3.43;;;3.13;;
57615;SDS011;43816;52.054;-9.494;2022-10-16T00:34:31;3.30;;;3.00;;
57615;SDS011;43816;52.054;-9.494;2022-10-16T00:34:41;3.30;;;3.00;;
57615;SDS011;43816;52.054;-9.494;2022-10-16T00:34:52;3.40;;;3.00;;
57615;SDS011;43816;52.054;-9.494;2022-10-16T00:35:02;3.58;;;3.20;;
57615;SDS011;43816;52.054;-9.494;2022-10-16T00:35:12;3.87;;;3.30;;
57615;SDS011;43816;52.054;-9.494;2022-10-16T00:35:23;3.90;;;3.40;;
57615;SDS011;43816;52.054;-9.494;2022-10-16T00:35:33;3.83;;;3.30;;
57615;SDS011;43816;52.054;-9.494;2022-10-16T00:35:43;3.80;;;3.33;;
57615;SDS011;43816;52.054;-9.494;2022-10-16T00:35:54;3.70;;;3.30;;
57615;SDS011;43816;52.054;-9.494;2022-10-16T00:36:07;3.58;;;3.25;;
57615;SDS011;43816;52.054;-9.494;2022-10-16T00:36:24;3.50;;;3.20;;
57615;SDS011;43816;52.054;-9.494;2022-10-16T00:36:35;3.40;;;3.10;;
57615;SDS011;43816;52.054;-9.494;2022-10-16T00:36:45;3.47;;;3.13;;
57615;SDS011;43816;52.054;-9.494;2022-10-16T00:36:55;3.43;;;3.13;;
57615;SDS011;43816;52.054;-9.494;2022-10-16T00:37:06;3.50;;;3.17;;
57615;SDS011;43816;52.054;-9.494;2022-10-16T00:37:16;3.70;;;3.13;;
57615;SDS011;43816;52.054;-9.494;2022-10-16T00:37:26;5.03;;;3.20;;
57615;SDS011;43816;52.054;-9.494;2022-10-16T00:37:36;4.90;;;3.22;;
57615;SDS011;43816;52.054;-9.494;2022-10-16T00:37:47;4.53;;;3.27;;
57615;SDS011;43816;52.054;-9.494;2022-10-16T00:37:57;3.43;;;3.13;;
57615;SDS011;43816;52.054;-9.494;2022-10-16T00:38:07;3.40;;;3.10;;
57615;SDS011;43816;52.054;-9.494;2022-10-16T00:38:17;3.40;;;3.10;;
57615;SDS011;43816;52.054;-9.494;2022-10-16T00:38:28;3.50;;;3.20;;
57615;SDS011;43816;52.054;-9.494;2022-10-16T00:38:38;3.60;;;3.30;;
57615;SDS011;43816;52.054;-9.494;2022-10-16T00:38:50;3.50;;;3.20;;
57615;SDS011;43816;52.054;-9.494;2022-10-16T00:39:01;3.50;;;3.20;;
57615;SDS011;43816;52.054;-9.494;2022-10-16T00:39:12;3.50;;;3.20;;
57615;SDS011;43816;52.054;-9.494;2022-10-16T00:39:22;3.60;;;3.30;;
57615;SDS011;43816;52.054;-9.494;2022-10-16T00:39:33;3.57;;;3.27;;
57615;SDS011;43816;52.054;-9.494;2022-10-16T00:39:43;3.75;;;3.25;;
57615;SDS011;43816;52.054;-9.494;2022-10-16T00:39:53;3.93;;;3.17;;
57615;SDS011;43816;52.054;-9.494;2022-10-16T00:40:04;3.97;;;3.30;;
57615;SDS011;43816;52.054;-9.494;2022-10-16T00:40:14;3.63;;;3.28;;
57615;SDS011;43816;52.054;-9.494;2022-10-16T00:40:25;3.37;;;3.07;;
57615;SDS011;43816;52.054;-9.494;2022-10-16T00:40:35;3.22;;;2.92;;
57615;SDS011;43816;52.054;-9.494;2022-10-16T00:40:45;3.27;;;2.97;;
57615;SDS011;43816;52.054;-9.494;2022-10-16T00:40:56;3.37;;;3.07;;
57615;SDS011;43816;52.054;-9.494;2022-10-16T00:41:07;3.50;;;3.20;;
57615;SDS011;43816;52.054;-9.494;2022-10-16T00:41:20;3.38;;;3.08;;
57615;SDS011;43816;52.054;-9.494;2022-10-16T00:41:32;3.13;;;2.90;;
57615;SDS011;43816;52.054;-9.494;2022-10-16T00:41:43;3.22;;;2.95;;
57615;SDS011;43816;52.054;-9.494;2022-10-16T00:41:54;3.33;;;3.03;;
57615;SDS011;43816;52.054;-9.494;2022-10-16T00:42:04;3.40;;;3.10;;
57615;SDS011;43816;52.054;-9.494;2022-10-16T00:42:18;3.30;;;3.00;;
57615;SDS011;43816;52.054;-9.494;2022-10-16T00:42:28;3.35;;;3.00;;
57615;SDS011;43816;52.054;-9.494;2022-10-16T00:42:39;3.25;;;2.90;;
57615;SDS011;43816;52.054;-9.494;2022-10-16T00:42:49;3.73;;;2.93;;
57615;SDS011;43816;52.054;-9.494;2022-10-16T00:42:59;3.63;;;2.80;;
57615;SDS011;43816;52.054;-9.494;2022-10-16T00:43:48;3.47;;;3.17;;
57615;SDS011;43816;52.054;-9.494;2022-10-16T00:44:02;3.70;;;3.13;;
57615;SDS011;43816;52.054;-9.494;2022-10-16T00:45:05;3.50;;;3.20;;
57615;SDS011;43816;52.054;-9.494;2022-10-16T00:45:16;3.35;;;3.05;;
57615;SDS011;43816;52.054;-9.494;2022-10-16T00:45:26;3.30;;;3.00;;
57615;SDS011;43816;52.054;-9.494;2022-10-16T00:45:37;3.50;;;3.20;;
57615;SDS011;43816;52.054;-9.494;2022-10-16T00:45:47;3.50;;;3.20;;
57615;SDS011;43816;52.054;-9.494;2022-10-16T00:45:58;3.50;;;3.20;;
57615;SDS011;43816;52.054;-9.494;2022-10-16T00:46:19;3.40;;;3.10;;
57615;SDS011;43816;52.054;-9.494;2022-10-16T00:46:41;3.38;;;3.08;;
57615;SDS011;43816;52.054;-9.494;2022-10-16T00:46:52;3.33;;;3.08;;
57615;SDS011;43816;52.054;-9.494;2022-10-16T00:47:02;3.13;;;2.83;;
57615;SDS011;43816;52.054;-9.494;2022-10-16T00:47:15;3.20;;;2.90;;
57615;SDS011;43816;52.054;-9.494;2022-10-16T00:47:34;3.22;;;2.92;;
57615;SDS011;43816;52.054;-9.494;2022-10-16T00:47:46;3.17;;;2.88;;
57615;SDS011;43816;52.054;-9.494;2022-10-16T00:47:58;3.10;;;2.80;;
57615;SDS011;43816;52.054;-9.494;2022-10-16T00:48:10;3.10;;;2.80;;
57615;SDS011;43816;52.054;-9.494;2022-10-16T00:48:23;3.30;;;3.00;;
57615;SDS011;43816;52.054;-9.494;2022-10-16T00:48:33;3.40;;;3.10;;
57615;SDS011;43816;52.054;-9.494;2022-10-16T00:48:45;3.25;;;3.00;;
57615;SDS011;43816;52.054;-9.494;2022-10-16T00:49:01;3.25;;;2.95;;
57615;SDS011;43816;52.054;-9.494;2022-10-16T00:49:20;3.63;;;3.17;;
57615;SDS011;43816;52.054;-9.494;2022-10-16T00:49:30;3.60;;;3.30;;
57615;SDS011;43816;52.054;-9.494;2022-10-16T00:49:41;3.40;;;3.10;;
57615;SDS011;43816;52.054;-9.494;2022-10-16T00:49:51;3.60;;;3.30;;
57615;SDS011;43816;52.054;-9.494;2022-10-16T00:50:28;3.63;;;3.33;;
57615;SDS011;43816;52.054;-9.494;2022-10-16T00:50:41;3.53;;;3.20;;
57615;SDS011;43816;52.054;-9.494;2022-10-16T00:50:51;3.50;;;3.20;;
57615;SDS011;43816;52.054;-9.494;2022-10-16T00:51:02;3.60;;;3.20;;
57615;SDS011;43816;52.054;-9.494;2022-10-16T00:51:16;3.70;;;3.22;;
57615;SDS011;43816;52.054;-9.494;2022-10-16T00:51:38;3.58;;;3.28;;
57615;SDS011;43816;52.054;-9.494;2022-10-16T00:51:55;3.47;;;3.17;;
57615;SDS011;43816;52.054;-9.494;2022-10-16T00:52:05;3.30;;;3.00;;
57615;SDS011;43816;52.054;-9.494;2022-10-16T00:52:15;3.20;;;3.00;;
57615;SDS011;43816;52.054;-9.494;2022-10-16T00:52:27;3.17;;;2.97;;
57615;SDS011;43816;52.054;-9.494;2022-10-16T00:52:39;3.30;;;3.03;;
57615;SDS011;43816;52.054;-9.494;2022-10-16T00:52:53;3.97;;;3.17;;
57615;SDS011;43816;52.054;-9.494;2022-10-16T00:53:04;4.28;;;3.28;;
57615;SDS011;43816;52.054;-9.494;2022-10-16T00:53:15;3.58;;;3.25;;
57615;SDS011;43816;52.054;-9.494;2022-10-16T00:53:27;3.50;;;3.20;;
57615;SDS011;43816;52.054;-9.494;2022-10-16T00:53:37;3.40;;;3.17;;
57615;SDS011;43816;52.054;-9.494;2022-10-16T00:53:48;3.30;;;3.00;;
57615;SDS011;43816;52.054;-9.494;2022-10-16T00:54:00;3.40;;;3.10;;
57615;SDS011;43816;52.054;-9.494;2022-10-16T00:54:14;3.40;;;3.10;;
57615;SDS011;43816;52.054;-9.494;2022-10-16T00:54:28;3.22;;;2.92;;
57615;SDS011;43816;52.054;-9.494;2022-10-16T00:54:40;3.20;;;2.90;;
57615;SDS011;43816;52.054;-9.494;2022-10-16T00:54:51;3.10;;;2.80;;
57615;SDS011;43816;52.054;-9.494;2022-10-16T00:55:03;3.10;;;2.83;;
57615;SDS011;43816;52.054;-9.494;2022-10-16T00:55:16;3.20;;;2.90;;
57615;SDS011;43816;52.054;-9.494;2022-10-16T00:55:27;3.40;;;3.10;;
57615;SDS011;43816;52.054;-9.494;2022-10-16T00:55:38;3.30;;;3.00;;
57615;SDS011;43816;52.054;-9.494;2022-10-16T00:55:48;3.30;;;3.00;;
57615;SDS011;43816;52.054;-9.494;2022-10-16T00:55:59;3.27;;;2.67;;
57615;SDS011;43816;52.054;-9.494;2022-10-16T00:56:09;3.35;;;2.80;;
57615;SDS011;43816;52.054;-9.494;2022-10-16T00:56:19;3.33;;;2.97;;
57615;SDS011;43816;52.054;-9.494;2022-10-16T00:56:30;3.30;;;3.00;;
57615;SDS011;43816;52.054;-9.494;2022-10-16T00:56:41;3.20;;;2.90;;
57615;SDS011;43816;52.054;-9.494;2022-10-16T00:56:53;3.10;;;2.88;;
57615;SDS011;43816;52.054;-9.494;2022-10-16T00:57:05;3.20;;;2.90;;
57615;SDS011;43816;52.054;-9.494;2022-10-16T00:57:16;3.13;;;2.83;;
57615;SDS011;43816;52.054;-9.494;2022-10-16T00:57:27;3.10;;;2.80;;
57615;SDS011;43816;52.054;-9.494;2022-10-16T00:57:37;3.05;;;2.83;;
57615;SDS011;43816;52.054;-9.494;2022-10-16T00:57:49;3.00;;;2.80;;
57615;SDS011;43816;52.054;-9.494;2022-10-16T00:58:00;3.15;;;2.85;;
57615;SDS011;43816;52.054;-9.494;2022-10-16T00:58:11;3.20;;;2.90;;
57615;SDS011;43816;52.054;-9.494;2022-10-16T00:58:21;3.33;;;2.92;;
57615;SDS011;43816;52.054;-9.494;2022-10-16T00:58:31;3.27;;;2.93;;
57615;SDS011;43816;52.054;-9.494;2022-10-16T00:58:42;3.75;;;3.10;;
57615;SDS011;43816;52.054;-9.494;2022-10-16T00:58:52;3.67;;;3.13;;
57615;SDS011;43816;52.054;-9.494;2022-10-16T00:59:03;3.30;;;3.00;;
57615;SDS011;43816;52.054;-9.494;2022-10-16T00:59:28;3.20;;;2.90;;
57615;SDS011;43816;52.054;-9.494;2022-10-16T00:59:41;3.30;;;3.00;;
57615;SDS011;43816;52.054;-9.494;2022-10-16T00:59:52;3.15;;;2.83;;
57615;SDS011;43816;52.054;-9.494;2022-10-16T01:00:04;3.07;;;2.73;;
57615;SDS011;43816;52.054;-9.494;2022-10-16T01:00:20;3.25;;;2.92;;
57615;SDS011;43816;52.054;-9.494;2022-10-16T01:00:33;3.30;;;2.97;;
57615;SDS011;43816;52.054;-9.494;2022-10-16T01:00:43;3.43;;;3.13;;
57615;SDS011;43816;52.054;-9.494;2022-10-16T01:00:54;3.60;;;3.30;;
57615;SDS011;43816;52.054;-9.494;2022-10-16T01:01:04;3.53;;;3.23;;
57615;SDS011;43816;52.054;-9.494;2022-10-16T01:01:14;3.30;;;3.07;;
57615;SDS011;43816;52.054;-9.494;2022-10-16T01:01:25;3.07;;;2.87;;
57615;SDS011;43816;52.054;-9.494;2022-10-16T01:01:35;3.15;;;2.85;;
57615;SDS011;43816;52.054;-9.494;2022-10-16T01:01:46;3.00;;;2.70;;
57615;SDS011;43816;52.054;-9.494;2022-10-16T01:01:56;3.13;;;2.80;;
57615;SDS011;43816;52.054;-9.494;2022-10-16T01:02:10;3.10;;;2.80;;
57615;SDS011;43816;52.054;-9.494;2022-10-16T01:02:22;3.30;;;2.95;;
57615;SDS011;43816;52.054;-9.494;2022-10-16T01:02:33;3.20;;;2.90;;
57615;SDS011;43816;52.054;-9.494;2022-10-16T01:02:43;3.33;;;3.03;;
57615;SDS011;43816;52.054;-9.494;2022-10-16T01:02:54;3.57;;;3.17;;
57615;SDS011;43816;52.054;-9.494;2022-10-16T01:03:22;3.50;;;3.08;;
57615;SDS011;43816;52.054;-9.494;2022-10-16T01:03:35;3.17;;;2.88;;
57615;SDS011;43816;52.054;-9.494;2022-10-16T01:03:46;3.22;;;2.92;;
57615;SDS011;43816;52.054;-9.494;2022-10-16T01:03:56;3.20;;;2.90;;
57615;SDS011;43816;52.054;-9.494;2022-10-16T01:04:06;3.10;;;2.80;;
57615;SDS011;43816;52.054;-9.494;2022-10-16T01:04:17;3.00;;;2.70;;
57615;SDS011;43816;52.054;-9.494;2022-10-16T01:04:30;3.05;;;2.72;;
57615;SDS011;43816;52.054;-9.494;2022-10-16T01:04:45;3.10;;;2.80;;
57615;SDS011;43816;52.054;-9.494;2022-10-16T01:04:58;3.10;;;2.85;;
57615;SDS011;43816;52.054;-9.494;2022-10-16T01:05:08;3.13;;;2.77;;
57615;SDS011;43816;52.054;-9.494;2022-10-16T01:05:20;3.30;;;2.70;;
57615;SDS011;43816;52.054;-9.494;2022-10-16T01:05:34;3.40;;;2.80;;
57615;SDS011;43816;52.054;-9.494;2022-10-16T01:06:19;3.17;;;2.90;;
57615;SDS011;43816;52.054;-9.494;2022-10-16T01:07:03;3.10;;;2.80;;
57615;SDS011;43816;52.054;-9.494;2022-10-16T01:07:45;3.00;;;2.70;;
57615;SDS011;43816;52.054;-9.494;2022-10-16T01:08:12;2.97;;;2.70;;
57615;SDS011;43816;52.054;-9.494;2022-10-16T01:09:51;3.03;;;2.83;;
57615;SDS011;43816;52.054;-9.494;2022-10-16T01:10:29;3.13;;;2.83;;
57615;SDS011;43816;52.054;-9.494;2022-10-16T01:10:48;3.10;;;2.80;;
57615;SDS011;43816;52.054;-9.494;2022-10-16T01:11:04;3.13;;;2.80;;
57615;SDS011;43816;52.054;-9.494;2022-10-16T01:12:12;2.95;;;2.72;;
57615;SDS011;43816;52.054;-9.494;2022-10-16T01:13:38;3.05;;;2.75;;
57615;SDS011;43816;52.054;-9.494;2022-10-16T01:13:53;2.92;;;2.70;;
57615;SDS011;43816;52.054;-9.494;2022-10-16T01:14:25;3.00;;;2.60;;
57615;SDS011;43816;52.054;-9.494;2022-10-16T01:15:36;3.20;;;2.78;;
57615;SDS011;43816;52.054;-9.494;2022-10-16T01:16:07;3.08;;;2.78;;
57615;SDS011;43816;52.054;-9.494;2022-10-16T01:16:35;3.20;;;2.90;;
57615;SDS011;43816;52.054;-9.494;2022-10-16T01:17:25;2.90;;;2.70;;
57615;SDS011;43816;52.054;-9.494;2022-10-16T01:17:57;3.00;;;2.80;;
57615;SDS011;43816;52.054;-9.494;2022-10-16T01:18:14;3.20;;;2.90;;
57615;SDS011;43816;52.054;-9.494;2022-10-16T01:18:52;2.90;;;2.70;;